Time;durP1;ratioP1;P1;durP2;ratioP2;P2;SDS_P1;SDS_P2;PMS_P1;PMS_P2;Temp;Humidity;BMP_temperature;BMP_pressure;BME280_temperature;BME280_humidity;BME280_pressure;Samples;Min_cycle;Max_cycle;Signal;HPM_P1;HPM_P2
2023/05/01 04:30:11;;;;;;;5.97;2.45;;;14.90;73.60;;;;;;5919765;23;20030;-80
2023/05/01 04:32:37;;;;;;;6.32;2.42;;;14.90;73.40;;;;;;4933526;29;20028;-81
2023/05/01 04:35:03;;;;;;;4.40;2.65;;;14.90;73.50;;;;;;4938806;29;20380;-81
2023/05/01 04:37:29;;;;;;;4.95;2.78;;;14.90;73.20;;;;;;4938733;29;20886;-80
2023/05/01 04:39:54;;;;;;;8.88;3.50;;;14.90;73.40;;;;;;4935553;29;20070;-80
2023/05/01 04:42:20;;;;;;;6.82;3.38;;;14.90;73.40;;;;;;4958115;29;20503;-80
2023/05/01 04:44:46;;;;;;;8.32;2.90;;;14.90;73.80;;;;;;4940174;29;20118;-80
2023/05/01 04:47:12;;;;;;;8.30;2.80;;;14.90;73.60;;;;;;4957775;29;20098;-80
2023/05/01 04:49:38;;;;;;;6.32;2.55;;;14.90;73.60;;;;;;4940246;28;20119;-80
2023/05/01 04:52:03;;;;;;;7.28;2.80;;;14.90;74.30;;;;;;4936067;29;20067;-83
2023/05/01 04:54:29;;;;;;;5.53;3.05;;;14.80;74.10;;;;;;4921681;29;20036;-80
2023/05/01 04:56:55;;;;;;;8.82;3.55;;;14.90;73.80;;;;;;4937894;29;20043;-80
2023/05/01 04:59:20;;;;;;;9.50;3.33;;;14.90;73.70;;;;;;4926090;29;20047;-81
2023/05/01 05:01:46;;;;;;;8.02;3.45;;;14.90;73.70;;;;;;4945711;28;20031;-81
2023/05/01 05:04:12;;;;;;;11.07;3.20;;;14.80;73.70;;;;;;4928316;29;20015;-82
2023/05/01 05:06:37;;;;;;;10.75;4.10;;;14.80;73.90;;;;;;4944458;29;20072;-81
2023/05/01 05:09:03;;;;;;;6.82;3.50;;;14.80;73.80;;;;;;4936321;29;20499;-82
2023/05/01 05:11:29;;;;;;;9.85;4.03;;;14.80;74.10;;;;;;4948771;29;20073;-81
2023/05/01 05:13:54;;;;;;;9.18;3.80;;;14.80;73.80;;;;;;4942853;29;20032;-81
2023/05/01 05:16:20;;;;;;;9.00;3.83;;;14.80;73.90;;;;;;4937151;29;20451;-81
2023/05/01 05:18:45;;;;;;;10.00;3.90;;;14.80;74.10;;;;;;4938958;29;20023;-81
2023/05/01 05:21:11;;;;;;;9.38;3.65;;;14.80;73.90;;;;;;4949271;29;20383;-81
2023/05/01 05:23:37;;;;;;;9.23;3.60;;;14.80;73.70;;;;;;4939311;29;20075;-81
2023/05/01 05:26:03;;;;;;;9.77;4.20;;;14.80;73.60;;;;;;4957755;29;20038;-81
2023/05/01 05:28:30;;;;;;;6.85;3.50;;;14.90;73.60;;;;;;4940018;29;20024;-81
2023/05/01 05:30:56;;;;;;;8.77;4.10;;;15.00;73.20;;;;;;4939995;29;20055;-81
2023/05/01 05:33:23;;;;;;;7.30;3.17;;;15.10;73.30;;;;;;4951087;28;20031;-81
2023/05/01 05:35:50;;;;;;;13.30;3.75;;;15.10;72.90;;;;;;4937163;29;20027;-82
2023/05/01 05:38:16;;;;;;;11.70;4.05;;;15.10;72.70;;;;;;4957535;29;20133;-81
2023/05/01 05:40:41;;;;;;;5.78;3.53;;;15.20;72.60;;;;;;4945607;29;20097;-81
2023/05/01 05:43:07;;;;;;;13.40;3.75;;;15.20;72.50;;;;;;4938294;29;20019;-81
2023/05/01 05:45:33;;;;;;;9.00;3.33;;;15.30;72.40;;;;;;4954141;28;20027;-81
2023/05/01 05:47:59;;;;;;;10.88;3.53;;;15.30;72.10;;;;;;4938115;29;20024;-81
2023/05/01 05:50:25;;;;;;;4.90;2.80;;;15.30;72.00;;;;;;4949783;28;20582;-81
2023/05/01 05:52:51;;;;;;;8.05;3.03;;;15.30;72.00;;;;;;4957298;29;20035;-81
2023/05/01 05:55:16;;;;;;;9.27;3.13;;;15.30;72.00;;;;;;4960147;28;20039;-81
2023/05/01 05:57:42;;;;;;;7.88;3.60;;;15.20;71.80;;;;;;4941150;29;20038;-81
2023/05/01 06:00:09;;;;;;;9.45;3.55;;;15.20;71.80;;;;;;4940407;29;20027;-81
2023/05/01 06:02:35;;;;;;;10.98;3.47;;;15.20;71.80;;;;;;4939089;29;20466;-81
2023/05/01 06:05:01;;;;;;;8.65;3.33;;;15.20;71.80;;;;;;4956958;29;20045;-81
2023/05/01 06:07:27;;;;;;;5.57;3.05;;;15.20;71.80;;;;;;4940299;29;20066;-81
2023/05/01 06:09:52;;;;;;;8.00;3.38;;;15.30;71.70;;;;;;4957145;29;20019;-81
2023/05/01 06:12:18;;;;;;;10.15;3.47;;;15.30;71.60;;;;;;4944270;29;20032;-81
2023/05/01 06:14:44;;;;;;;5.95;2.80;;;15.30;71.50;;;;;;4938000;29;20031;-78
2023/05/01 06:17:10;;;;;;;9.07;3.05;;;15.40;71.50;;;;;;4970930;28;20105;-81
2023/05/01 06:19:36;;;;;;;7.32;3.03;;;15.40;71.40;;;;;;4962246;28;20070;-80
2023/05/01 06:22:02;;;;;;;6.72;2.60;;;15.40;71.30;;;;;;4957058;28;20110;-80
2023/05/01 06:24:28;;;;;;;8.90;2.95;;;15.50;71.10;;;;;;4956224;29;20106;-78
2023/05/01 06:26:53;;;;;;;8.23;3.33;;;15.50;71.00;;;;;;4937685;29;20031;-78
2023/05/01 06:29:19;;;;;;;6.93;3.20;;;15.60;70.80;;;;;;4937780;29;20024;-78
2023/05/01 06:31:44;;;;;;;9.52;2.60;;;15.70;70.70;;;;;;4947482;29;20183;-77
2023/05/01 06:34:10;;;;;;;5.07;2.83;;;15.80;70.50;;;;;;4953674;29;20027;-79
2023/05/01 06:36:36;;;;;;;5.45;2.45;;;15.70;70.50;;;;;;4940653;29;20388;-74
2023/05/01 06:39:01;;;;;;;6.90;2.55;;;15.70;70.50;;;;;;4926123;29;20396;-81
2023/05/01 06:41:27;;;;;;;6.82;2.45;;;15.60;70.40;;;;;;4928519;29;20410;-77
2023/05/01 06:43:53;;;;;;;6.63;2.50;;;15.60;70.70;;;;;;4955414;28;20027;-78
2023/05/01 06:46:19;;;;;;;5.10;2.25;;;15.60;70.50;;;;;;4941572;29;20124;-78
2023/05/01 06:48:44;;;;;;;7.90;2.25;;;15.60;70.50;;;;;;4942586;29;20023;-76
2023/05/01 06:51:13;;;;;;;5.63;2.30;;;15.60;70.50;;;;;;4958063;28;20031;-79
2023/05/01 06:53:40;;;;;;;9.43;3.00;;;15.60;70.30;;;;;;4952073;28;20031;-80
2023/05/01 06:56:06;;;;;;;8.73;2.55;;;15.70;70.20;;;;;;4959938;28;20105;-78
2023/05/01 06:58:32;;;;;;;7.55;2.85;;;15.70;70.00;;;;;;4954475;29;20506;-78
2023/05/01 07:00:58;;;;;;;8.65;2.38;;;15.60;70.00;;;;;;4955621;28;20039;-80
2023/05/01 07:03:26;;;;;;;5.63;2.15;;;15.70;69.80;;;;;;4945837;29;20038;-84
2023/05/01 07:05:52;;;;;;;11.55;2.53;;;15.70;69.60;;;;;;4949706;29;20395;-84
2023/05/01 07:08:18;;;;;;;7.40;2.28;;;15.80;69.40;;;;;;4948032;28;20106;-78
2023/05/01 07:10:44;;;;;;;9.90;2.30;;;15.80;69.30;;;;;;4950151;29;20062;-82
2023/05/01 07:13:09;;;;;;;6.97;2.30;;;15.80;69.00;;;;;;4950763;29;20502;-80
2023/05/01 07:15:36;;;;;;;6.22;2.05;;;15.80;69.00;;;;;;4949701;29;20454;-84
2023/05/01 07:18:04;;;;;;;4.63;2.13;;;15.80;68.90;;;;;;4947139;28;20439;-82
2023/05/01 07:20:30;;;;;;;6.97;3.40;;;15.80;69.00;;;;;;4950475;28;20062;-81
2023/05/01 07:22:56;;;;;;;11.43;2.85;;;15.80;69.00;;;;;;4949255;28;20026;-81
2023/05/01 07:25:22;;;;;;;8.38;2.05;;;15.90;68.90;;;;;;4951867;28;20027;-82
2023/05/01 07:27:48;;;;;;;4.28;2.40;;;15.90;69.00;;;;;;4957875;28;20063;-79
2023/05/01 07:30:13;;;;;;;8.18;2.38;;;16.00;69.00;;;;;;4929956;28;20038;-79
2023/05/01 07:32:39;;;;;;;6.65;1.92;;;15.90;68.80;;;;;;4951672;28;20122;-80
2023/05/01 07:35:05;;;;;;;9.02;2.40;;;16.00;68.90;;;;;;4935036;29;20031;-81
2023/05/01 07:37:31;;;;;;;9.25;2.35;;;16.00;68.80;;;;;;4944659;28;20039;-81
2023/05/01 07:39:57;;;;;;;3.67;2.30;;;16.10;68.50;;;;;;4947400;28;20035;-82
2023/05/01 07:42:23;;;;;;;5.70;2.42;;;16.20;68.30;;;;;;4947099;28;20019;-81
2023/05/01 07:44:51;;;;;;;10.40;2.55;;;16.20;68.00;;;;;;4946223;28;20036;-82
2023/05/01 07:47:17;;;;;;;9.80;2.38;;;16.20;68.00;;;;;;4950963;28;20027;-81
2023/05/01 07:49:43;;;;;;;10.00;2.70;;;16.20;68.00;;;;;;4925093;28;20027;-81
2023/05/01 07:52:09;;;;;;;6.35;2.65;;;16.30;67.70;;;;;;4951186;28;20031;-81
2023/05/01 07:54:35;;;;;;;6.38;2.25;;;16.30;67.90;;;;;;4947943;28;20035;-81
2023/05/01 07:57:01;;;;;;;8.73;2.45;;;16.40;67.80;;;;;;4945611;28;20031;-81
2023/05/01 07:59:27;;;;;;;4.32;1.90;;;16.40;67.60;;;;;;4933274;28;20173;-80
2023/05/01 08:01:53;;;;;;;9.40;2.67;;;16.50;67.40;;;;;;4954501;28;20145;-81
2023/05/01 08:04:21;;;;;;;8.88;2.53;;;16.60;67.30;;;;;;4950104;28;20031;-81
2023/05/01 08:06:48;;;;;;;7.35;2.55;;;16.80;66.90;;;;;;4928146;29;20020;-81
2023/05/01 08:09:14;;;;;;;10.02;2.13;;;16.90;66.50;;;;;;4931499;29;20031;-81
2023/05/01 08:11:40;;;;;;;8.95;2.85;;;17.10;66.00;;;;;;4944912;28;20075;-81
2023/05/01 08:14:05;;;;;;;7.80;3.15;;;17.30;65.80;;;;;;4948936;29;20036;-83
2023/05/01 08:16:35;;;;;;;10.43;2.28;;;17.40;64.90;;;;;;4931011;29;20035;-82
2023/05/01 08:19:01;;;;;;;3.72;1.98;;;17.60;64.70;;;;;;4943656;29;20086;-81
2023/05/01 08:21:26;;;;;;;10.77;2.30;;;17.80;63.90;;;;;;4933740;29;20040;-81
2023/05/01 08:23:54;;;;;;;7.07;2.60;;;17.90;63.40;;;;;;4953940;28;20652;-81
2023/05/01 08:26:20;;;;;;;4.13;1.77;;;18.00;63.30;;;;;;4946686;29;20033;-81
2023/05/01 08:28:46;;;;;;;5.47;2.00;;;18.00;62.70;;;;;;4953524;29;20027;-81
2023/05/01 08:31:12;;;;;;;5.75;1.83;;;17.90;62.60;;;;;;4927477;29;20054;-81
2023/05/01 08:33:40;;;;;;;7.07;1.83;;;17.90;62.50;;;;;;4947848;29;20040;-80
2023/05/01 08:36:07;;;;;;;5.03;1.65;;;17.90;61.60;;;;;;4950924;29;20031;-80
2023/05/01 08:38:33;;;;;;;5.85;2.00;;;18.60;60.10;;;;;;4945110;29;20057;-81
2023/05/01 08:41:00;;;;;;;5.60;1.38;;;18.60;59.70;;;;;;4947433;29;20106;-80
2023/05/01 08:43:28;;;;;;;6.85;1.70;;;18.60;59.40;;;;;;4929942;29;20062;-80
2023/05/01 08:45:57;;;;;;;4.45;1.65;;;18.40;58.20;;;;;;4945938;29;20458;-80
2023/05/01 08:48:25;;;;;;;5.55;1.88;;;18.20;57.90;;;;;;4929153;29;20031;-80
2023/05/01 08:50:54;;;;;;;6.13;1.40;;;18.00;58.80;;;;;;4925468;29;20043;-80
2023/05/01 08:53:20;;;;;;;3.92;1.70;;;18.00;58.70;;;;;;4929622;29;20038;-80
2023/05/01 08:55:47;;;;;;;5.05;1.42;;;18.10;58.60;;;;;;4948808;28;20024;-81
2023/05/01 08:58:13;;;;;;;3.80;1.40;;;18.30;58.00;;;;;;4945705;29;20114;-81
2023/05/01 09:00:40;;;;;;;6.60;1.92;;;18.10;57.30;;;;;;4924061;28;20032;-81
2023/05/01 09:03:10;;;;;;;4.68;1.40;;;18.00;57.90;;;;;;4933663;29;20059;-82
2023/05/01 09:05:36;;;;;;;5.00;1.37;;;17.90;57.60;;;;;;4923629;29;20039;-81
2023/05/01 09:08:02;;;;;;;2.58;1.23;;;17.90;57.80;;;;;;4929852;29;20259;-82
2023/05/01 09:10:28;;;;;;;2.67;1.00;;;17.90;56.30;;;;;;4924486;29;20068;-77
2023/05/01 09:13:00;;;;;;;2.97;1.15;;;18.00;57.00;;;;;;4944927;28;20081;-84
2023/05/01 09:15:26;;;;;;;5.47;1.17;;;18.00;57.20;;;;;;4941179;28;20043;-82
2023/05/01 09:17:53;;;;;;;3.38;1.40;;;18.10;56.90;;;;;;4948347;28;20529;-78
2023/05/01 09:20:19;;;;;;;4.32;1.38;;;18.20;57.00;;;;;;4938109;28;20023;-78
2023/05/01 09:22:44;;;;;;;3.03;1.17;;;18.40;57.50;;;;;;4937728;29;20070;-80
2023/05/01 09:25:10;;;;;;;4.53;1.45;;;18.70;55.90;;;;;;4938183;29;20503;-78
2023/05/01 09:27:37;;;;;;;3.85;1.40;;;18.80;55.40;;;;;;4939976;29;20024;-78
2023/05/01 09:30:05;;;;;;;3.75;1.52;;;18.90;55.60;;;;;;4926886;29;20031;-76
2023/05/01 09:32:31;;;;;;;3.22;1.20;;;18.90;55.70;;;;;;4926742;29;20051;-76
2023/05/01 09:35:13;;;;;;;3.65;1.33;;;18.80;55.40;;;;;;4931296;29;20036;-74
2023/05/01 09:37:39;;;;;;;4.95;1.58;;;18.70;54.90;;;;;;4910752;29;20028;-76
2023/05/01 09:40:13;;;;;;;4.18;1.08;;;18.70;55.60;;;;;;4912904;29;20464;-78
2023/05/01 09:42:52;;;;;;;2.13;1.33;;;18.80;55.40;;;;;;4914386;29;20282;-77
2023/05/01 09:45:18;;;;;;;5.93;1.63;;;19.10;55.00;;;;;;4928840;29;20108;-75
2023/05/01 09:47:45;;;;;;;8.38;1.30;;;19.60;54.50;;;;;;4922963;29;20532;-76
2023/05/01 09:50:34;;;;;;;5.35;1.30;;;20.00;53.50;;;;;;4926466;29;20050;-75
2023/05/01 09:53:03;;;;;;;5.97;1.70;;;20.20;52.30;;;;;;4894706;29;20123;-75
2023/05/01 09:55:29;;;;;;;7.18;1.23;;;20.20;51.70;;;;;;4914327;29;20032;-75
2023/05/01 09:57:55;;;;;;;4.63;1.38;;;20.30;51.60;;;;;;4926030;29;20048;-76
2023/05/01 10:00:20;;;;;;;4.53;1.33;;;20.30;51.60;;;;;;4926175;29;20028;-75
2023/05/01 10:02:47;;;;;;;6.07;1.23;;;20.30;51.70;;;;;;4925978;29;20514;-76
2023/05/01 10:05:14;;;;;;;7.07;1.30;;;20.20;51.40;;;;;;4909286;29;20040;-75
2023/05/01 10:07:58;;;;;;;4.38;1.50;;;20.10;50.90;;;;;;4927676;29;20024;-75
2023/05/01 10:10:25;;;;;;;4.20;1.40;;;20.30;51.80;;;;;;4920218;29;20051;-75
2023/05/01 10:12:50;;;;;;;4.13;1.60;;;20.70;52.20;;;;;;4926027;29;20028;-76
2023/05/01 10:15:17;;;;;;;3.95;1.70;;;20.60;52.20;;;;;;4924951;29;20039;-80
2023/05/01 10:17:43;;;;;;;4.30;1.30;;;20.80;51.90;;;;;;4932314;29;20071;-76
2023/05/01 10:20:13;;;;;;;4.93;1.58;;;20.70;51.60;;;;;;4929109;29;20150;-76
2023/05/01 10:22:39;;;;;;;;;;;20.50;52.10;;;;;;4931272;29;20067;-77
2023/05/01 10:25:12;;;;;;;6.03;1.48;;;20.30;52.30;;;;;;4930404;29;19911;-80
2023/05/01 10:27:40;;;;;;;4.35;1.40;;;20.80;52.40;;;;;;4930009;29;20027;-76
2023/05/01 10:30:08;;;;;;;5.28;1.60;;;21.10;51.70;;;;;;4927284;29;20028;-76
2023/05/01 10:32:37;;;;;;;8.57;1.63;;;21.30;51.00;;;;;;4935910;29;20055;-77
2023/05/01 10:35:18;;;;;;;2.53;1.40;;;21.20;50.80;;;;;;4948335;29;20063;-78
2023/05/01 10:37:48;;;;;;;4.38;1.75;;;21.10;50.10;;;;;;4928096;29;20036;-77
2023/05/01 10:40:39;;;;;;;12.07;2.33;;;21.00;49.80;;;;;;4943055;28;20132;-76
2023/05/01 10:43:29;;;;;;;4.95;1.70;;;21.00;49.90;;;;;;4943115;29;20055;-75
2023/05/01 10:46:15;;;;;;;6.75;1.30;;;20.90;50.50;;;;;;4939352;29;20035;-77
2023/05/01 10:48:41;;;;;;;5.15;1.73;;;20.90;50.70;;;;;;4940822;29;20023;-75
2023/05/01 10:51:08;;;;;;;4.95;1.38;;;20.90;51.80;;;;;;4940745;29;20066;-75
2023/05/01 10:53:33;;;;;;;6.97;1.67;;;20.90;51.90;;;;;;4929269;29;20056;-75
2023/05/01 10:55:59;;;;;;;2.95;1.63;;;20.80;52.20;;;;;;4941112;29;20444;-77
2023/05/01 10:58:40;;;;;;;5.53;1.70;;;20.70;51.40;;;;;;4940863;29;20123;-75
2023/05/01 11:01:27;;;;;;;4.80;1.48;;;20.60;50.90;;;;;;4945611;29;20066;-75
2023/05/01 11:03:54;;;;;;;4.18;1.30;;;20.50;50.80;;;;;;4938022;29;20106;-75
2023/05/01 11:06:20;;;;;;;3.25;1.30;;;20.40;51.10;;;;;;4940384;29;20024;-76
2023/05/01 11:08:46;;;;;;;3.78;1.45;;;20.30;51.20;;;;;;4940678;29;20038;-75
2023/05/01 11:11:20;;;;;;;5.90;1.50;;;20.10;51.20;;;;;;4940097;29;20102;-74
2023/05/01 11:13:59;;;;;;;4.90;2.15;;;19.90;50.60;;;;;;4927112;29;20032;-78
2023/05/01 11:16:40;;;;;;;2.92;0.95;;;19.80;50.10;;;;;;4951015;29;20070;-79
2023/05/01 11:19:19;;;;;;;5.22;1.38;;;19.80;50.40;;;;;;4951790;29;20532;-78
2023/05/01 11:21:46;;;;;;;6.65;1.20;;;19.80;50.00;;;;;;4948509;29;20151;-75
2023/05/01 11:24:12;;;;;;;2.55;1.00;;;19.80;51.00;;;;;;4931409;29;20498;-78
2023/05/01 11:26:39;;;;;;;2.00;1.10;;;19.90;51.80;;;;;;4934006;29;20036;-76
2023/05/01 11:29:05;;;;;;;4.05;1.33;;;20.10;52.20;;;;;;4936234;28;20024;-78
2023/05/01 11:31:31;;;;;;;5.03;1.38;;;20.20;50.80;;;;;;4947920;28;20586;-77
2023/05/01 11:33:58;;;;;;;1.70;0.80;;;20.10;50.50;;;;;;4932193;29;20051;-79
2023/05/01 11:36:26;;;;;;;4.13;1.40;;;20.00;50.70;;;;;;4944602;29;20031;-77
2023/05/01 11:38:56;;;;;;;3.17;1.23;;;19.80;49.70;;;;;;4927582;29;20122;-79
2023/05/01 11:41:23;;;;;;;4.72;1.20;;;19.80;50.00;;;;;;4943943;29;20038;-77
2023/05/01 11:43:54;;;;;;;2.83;0.93;;;19.80;50.30;;;;;;4934183;29;20041;-80
2023/05/01 11:46:30;;;;;;;2.95;1.00;;;19.80;50.30;;;;;;4945626;28;20023;-78
2023/05/01 11:48:58;;;;;;;5.72;1.00;;;20.00;50.30;;;;;;4931726;29;20139;-78
2023/05/01 11:51:24;;;;;;;6.63;1.50;;;20.00;50.60;;;;;;4929190;29;20035;-78
2023/05/01 11:54:01;;;;;;;3.55;1.20;;;20.00;50.10;;;;;;4949570;29;20034;-77
2023/05/01 11:56:28;;;;;;;3.67;0.90;;;20.10;49.70;;;;;;4946130;28;20032;-78
2023/05/01 11:58:56;;;;;;;4.10;1.23;;;20.20;49.90;;;;;;4928939;29;20032;-78
2023/05/01 12:01:52;;;;;;;5.30;1.20;;;20.40;48.60;;;;;;4945807;29;20036;-77
2023/05/01 12:04:28;;;;;;;4.90;1.00;;;20.40;50.40;;;;;;4921323;29;20383;-77
2023/05/01 12:06:54;;;;;;;3.65;1.35;;;20.50;49.20;;;;;;4930147;29;20665;-77
2023/05/01 12:09:22;;;;;;;5.47;1.25;;;20.60;49.30;;;;;;4946391;29;20517;-77
2023/05/01 12:11:50;;;;;;;6.55;1.42;;;20.70;47.30;;;;;;4946411;29;20394;-79
2023/05/01 12:14:17;;;;;;;3.63;1.10;;;20.70;48.50;;;;;;4927625;29;20031;-77
2023/05/01 12:16:43;;;;;;;4.20;1.67;;;20.70;48.50;;;;;;4946675;29;20020;-78
2023/05/01 12:19:12;;;;;;;2.83;0.98;;;20.50;47.90;;;;;;4929009;29;20038;-77
2023/05/01 12:21:37;;;;;;;10.70;1.92;;;20.70;48.00;;;;;;4948034;29;20031;-77
2023/05/01 12:24:10;;;;;;;2.60;1.23;;;20.80;47.70;;;;;;4926240;29;20029;-77
2023/05/01 12:26:36;;;;;;;7.20;1.15;;;20.80;47.60;;;;;;4945452;29;20157;-77
2023/05/01 12:29:04;;;;;;;5.72;1.40;;;20.90;48.20;;;;;;4927152;29;20159;-78
2023/05/01 12:31:30;;;;;;;2.95;1.02;;;20.80;49.10;;;;;;4929241;29;20078;-80
2023/05/01 12:33:58;;;;;;;5.32;1.40;;;20.80;49.40;;;;;;4944103;28;20832;-79
2023/05/01 12:36:26;;;;;;;5.20;1.35;;;20.80;49.30;;;;;;4941152;28;20415;-77
2023/05/01 12:38:59;;;;;;;5.65;1.40;;;20.90;49.80;;;;;;4945098;29;20027;-80
2023/05/01 12:41:44;;;;;;;6.80;1.08;;;21.00;49.70;;;;;;4947048;28;20569;-80
2023/05/01 12:44:24;;;;;;;6.43;1.17;;;21.20;50.00;;;;;;4929009;29;20039;-81
2023/05/01 12:47:00;;;;;;;2.95;1.30;;;21.30;49.90;;;;;;4927450;29;20027;-80
2023/05/01 12:49:27;;;;;;;6.35;1.60;;;21.30;49.50;;;;;;4946358;29;20461;-81
2023/05/01 12:51:57;;;;;;;6.00;1.33;;;21.40;48.90;;;;;;4947583;29;20558;-80
2023/05/01 12:54:36;;;;;;;4.40;1.10;;;21.30;48.30;;;;;;4942648;29;20121;-80
2023/05/01 12:57:16;;;;;;;6.75;1.23;;;21.30;47.90;;;;;;4945311;29;20023;-81
2023/05/01 12:59:44;;;;;;;3.33;1.00;;;21.30;48.50;;;;;;4942480;28;20087;-80
2023/05/01 13:02:15;;;;;;;5.22;1.20;;;21.30;48.40;;;;;;4945879;29;20032;-79
2023/05/01 13:04:43;;;;;;;5.65;1.42;;;21.00;48.10;;;;;;4927510;29;20047;-79
2023/05/01 13:07:19;;;;;;;3.80;1.25;;;20.80;48.00;;;;;;4932514;29;20052;-80
2023/05/01 13:09:58;;;;;;;3.28;1.40;;;20.80;48.20;;;;;;4927217;29;20027;-81
2023/05/01 13:12:25;;;;;;;5.45;1.30;;;20.80;48.20;;;;;;4937024;29;20155;-78
2023/05/01 13:14:51;;;;;;;4.47;1.10;;;21.00;48.40;;;;;;4926958;29;20126;-77
2023/05/01 13:17:31;;;;;;;1.70;1.00;;;21.10;49.00;;;;;;4932559;29;20119;-79
2023/05/01 13:20:02;;;;;;;3.50;1.05;;;21.10;47.90;;;;;;4945202;29;20031;-79
2023/05/01 13:22:36;;;;;;;3.08;1.48;;;21.10;47.80;;;;;;4946413;29;20039;-78
2023/05/01 13:25:23;;;;;;;5.40;1.95;;;21.20;47.50;;;;;;4949429;28;20049;-78
2023/05/01 13:27:51;;;;;;;2.75;1.23;;;21.20;47.90;;;;;;4931094;29;20035;-77
2023/05/01 13:30:30;;;;;;;4.07;1.20;;;21.20;48.60;;;;;;4927292;29;20387;-77
2023/05/01 13:32:56;;;;;;;4.13;1.42;;;21.20;48.70;;;;;;4950498;29;20037;-77
2023/05/01 13:35:23;;;;;;;5.38;1.58;;;21.10;48.60;;;;;;4947139;29;20102;-77
2023/05/01 13:37:50;;;;;;;5.95;1.50;;;21.10;48.10;;;;;;4948326;29;20027;-77
2023/05/01 13:40:17;;;;;;;6.03;1.45;;;21.00;49.00;;;;;;4928645;29;20443;-77
2023/05/01 13:42:44;;;;;;;3.78;1.08;;;20.90;49.40;;;;;;4946558;29;20032;-77
2023/05/01 13:45:11;;;;;;;3.25;1.30;;;20.90;49.20;;;;;;4946301;29;20023;-77
2023/05/01 13:47:40;;;;;;;3.10;1.15;;;20.80;49.00;;;;;;4931964;29;20054;-77
2023/05/01 13:50:11;;;;;;;3.33;1.25;;;20.90;49.10;;;;;;4945996;29;20035;-77
2023/05/01 13:52:42;;;;;;;2.53;1.17;;;21.00;49.60;;;;;;4945811;29;20075;-77
2023/05/01 13:55:09;;;;;;;6.40;1.60;;;21.10;49.90;;;;;;4933535;29;20159;-77
2023/05/01 13:57:40;;;;;;;3.00;1.55;;;21.40;50.00;;;;;;4951569;29;20073;-77
2023/05/01 14:00:07;;;;;;;5.20;1.27;;;21.40;49.20;;;;;;4934599;29;20063;-77
2023/05/01 14:02:36;;;;;;;5.47;1.38;;;21.30;48.80;;;;;;4951089;29;20038;-77
2023/05/01 14:05:07;;;;;;;5.45;1.48;;;21.20;49.30;;;;;;4950469;29;20015;-77
2023/05/01 14:07:39;;;;;;;3.25;1.60;;;21.10;49.60;;;;;;4934899;29;20038;-78
2023/05/01 14:10:08;;;;;;;7.32;1.83;;;21.10;49.60;;;;;;4952165;29;20016;-77
2023/05/01 14:12:33;;;;;;;5.55;1.73;;;21.20;49.30;;;;;;4939212;29;20407;-77
2023/05/01 14:15:00;;;;;;;7.60;1.50;;;21.20;48.90;;;;;;4935358;29;20027;-77
2023/05/01 14:17:33;;;;;;;4.03;1.17;;;21.20;48.70;;;;;;4949570;29;20038;-77
2023/05/01 14:19:59;;;;;;;5.35;1.55;;;21.20;48.80;;;;;;4950852;29;20529;-77
2023/05/01 14:22:33;;;;;;;4.40;1.48;;;21.20;48.20;;;;;;4950173;29;20118;-77
2023/05/01 14:24:59;;;;;;;5.05;1.50;;;21.20;48.90;;;;;;4949820;29;20020;-77
2023/05/01 14:27:25;;;;;;;2.03;1.20;;;21.20;48.60;;;;;;4951851;29;20126;-77
2023/05/01 14:29:50;;;;;;;3.03;1.35;;;21.30;48.90;;;;;;4951403;29;20019;-76
2023/05/01 14:32:16;;;;;;;4.10;1.50;;;21.30;48.80;;;;;;4950109;29;20079;-77
2023/05/01 14:34:42;;;;;;;3.00;1.80;;;21.30;49.30;;;;;;4950252;29;20035;-77
2023/05/01 14:37:13;;;;;;;5.20;1.20;;;21.30;49.60;;;;;;4950204;29;20035;-74
2023/05/01 14:39:39;;;;;;;2.60;1.55;;;21.20;49.00;;;;;;4947358;28;20031;-80
2023/05/01 14:42:05;;;;;;;3.85;1.75;;;21.30;49.40;;;;;;4952529;29;20470;-76
2023/05/01 14:44:31;;;;;;;5.32;1.75;;;21.20;49.60;;;;;;4928067;28;20055;-80
2023/05/01 14:46:57;;;;;;;4.28;1.52;;;21.20;50.40;;;;;;4956057;29;20016;-77
2023/05/01 14:49:24;;;;;;;5.65;1.77;;;21.30;51.10;;;;;;4944858;28;20030;-77
2023/05/01 14:51:52;;;;;;;3.10;1.42;;;21.30;50.00;;;;;;4939725;29;20051;-75
2023/05/01 14:54:18;;;;;;;5.25;1.60;;;21.30;49.70;;;;;;4938931;29;20035;-75
2023/05/01 14:56:46;;;;;;;4.10;1.95;;;21.20;50.00;;;;;;4957693;29;20101;-77
2023/05/01 14:59:12;;;;;;;5.43;1.55;;;21.20;50.70;;;;;;4953130;28;20030;-76
2023/05/01 15:01:38;;;;;;;3.22;1.25;;;21.40;50.70;;;;;;4951762;29;20028;-78
2023/05/01 15:04:06;;;;;;;4.57;1.75;;;21.50;50.50;;;;;;4939635;29;20534;-78
2023/05/01 15:06:32;;;;;;;4.45;1.38;;;21.50;50.20;;;;;;4949409;29;20063;-80
2023/05/01 15:08:58;;;;;;;6.45;1.88;;;21.40;50.40;;;;;;4933173;29;20169;-85
2023/05/01 15:11:24;;;;;;;7.28;1.55;;;21.30;50.50;;;;;;4947001;28;20030;-84
2023/05/01 15:13:49;;;;;;;5.05;2.00;;;21.20;50.90;;;;;;4950335;29;20039;-76
2023/05/01 15:16:15;;;;;;;4.72;1.67;;;21.10;50.80;;;;;;4948955;29;20031;-80
2023/05/01 15:18:41;;;;;;;4.45;1.60;;;21.00;51.20;;;;;;4948688;28;20046;-77
2023/05/01 15:21:07;;;;;;;3.90;1.75;;;20.90;51.60;;;;;;4947013;29;20024;-81
2023/05/01 15:23:32;;;;;;;5.13;1.58;;;20.90;51.20;;;;;;4931866;29;20037;-76
2023/05/01 15:26:00;;;;;;;4.40;1.50;;;20.90;51.50;;;;;;4948999;29;20020;-77
2023/05/01 15:28:26;;;;;;;3.83;1.40;;;20.90;51.50;;;;;;4935288;29;20718;-78
2023/05/01 15:30:52;;;;;;;2.83;1.30;;;20.80;51.60;;;;;;4948711;29;20093;-76
2023/05/01 15:33:18;;;;;;;4.00;1.60;;;20.80;51.70;;;;;;4948882;29;20035;-76
2023/05/01 15:35:45;;;;;;;4.60;1.42;;;20.80;51.70;;;;;;4944226;28;20024;-75
2023/05/01 15:38:11;;;;;;;3.08;1.20;;;20.80;51.70;;;;;;4944660;28;20596;-79
2023/05/01 15:40:37;;;;;;;5.03;1.70;;;20.70;51.70;;;;;;4949953;28;20074;-76
2023/05/01 15:43:04;;;;;;;4.72;1.63;;;20.60;52.40;;;;;;4947209;29;20042;-75
2023/05/01 15:45:30;;;;;;;6.60;1.50;;;20.60;52.40;;;;;;4928321;29;20067;-76
2023/05/01 15:47:56;;;;;;;1.85;1.30;;;20.60;52.30;;;;;;4929497;29;20618;-77
2023/05/01 15:50:23;;;;;;;3.10;1.17;;;20.50;52.90;;;;;;4930237;29;20206;-76
2023/05/01 15:52:49;;;;;;;4.05;1.50;;;20.40;52.90;;;;;;4949937;29;20087;-76
2023/05/01 15:55:16;;;;;;;3.97;1.75;;;20.50;52.20;;;;;;4949114;29;20027;-78
2023/05/01 15:57:47;;;;;;;4.38;1.30;;;20.40;52.10;;;;;;4950603;29;20054;-74
2023/05/01 16:00:13;;;;;;;6.75;1.38;;;20.30;51.70;;;;;;4927898;29;20027;-77
2023/05/01 16:02:40;;;;;;;6.05;1.98;;;20.20;52.00;;;;;;4947556;29;20051;-76
2023/05/01 16:05:07;;;;;;;4.97;1.50;;;20.10;52.50;;;;;;4948677;29;20051;-78
2023/05/01 16:07:33;;;;;;;7.28;1.50;;;19.90;52.50;;;;;;4933259;29;20094;-77
2023/05/01 16:09:58;;;;;;;7.10;1.80;;;19.80;53.40;;;;;;4946128;29;20027;-76
2023/05/01 16:12:26;;;;;;;5.35;1.50;;;19.70;53.70;;;;;;4931148;29;20027;-81
2023/05/01 16:14:52;;;;;;;4.70;1.95;;;19.50;53.80;;;;;;4949348;29;20106;-76
2023/05/01 16:17:19;;;;;;;7.00;1.73;;;19.50;54.40;;;;;;4952284;28;20062;-83
2023/05/01 16:19:45;;;;;;;5.57;1.40;;;19.60;54.70;;;;;;4945716;29;20518;-75
2023/05/01 16:22:13;;;;;;;5.13;1.45;;;19.70;54.60;;;;;;4926352;29;20505;-75
2023/05/01 16:24:38;;;;;;;4.43;1.20;;;19.70;55.00;;;;;;4927215;29;20032;-75
2023/05/01 16:27:04;;;;;;;4.63;1.70;;;19.80;54.70;;;;;;4928206;29;20118;-75
2023/05/01 16:29:34;;;;;;;5.07;1.95;;;19.60;54.70;;;;;;4949086;29;20121;-75
2023/05/01 16:32:00;;;;;;;3.50;1.60;;;19.60;54.80;;;;;;4930937;29;20058;-75
2023/05/01 16:34:26;;;;;;;3.42;1.80;;;19.60;54.60;;;;;;4949833;29;20047;-75
2023/05/01 16:36:52;;;;;;;6.25;1.98;;;19.70;54.40;;;;;;4946732;29;20035;-75
2023/05/01 16:39:20;;;;;;;3.88;1.50;;;19.90;54.40;;;;;;4944617;29;20059;-75
2023/05/01 16:41:53;;;;;;;7.85;2.03;;;19.90;54.00;;;;;;4948135;29;20037;-75
2023/05/01 16:44:20;;;;;;;2.22;1.25;;;20.10;53.90;;;;;;4946697;28;20054;-76
2023/05/01 16:46:52;;;;;;;3.85;1.45;;;20.20;54.00;;;;;;4945862;29;20022;-75
2023/05/01 16:49:18;;;;;;;4.82;1.20;;;20.20;54.10;;;;;;4939398;28;20042;-76
2023/05/01 16:51:44;;;;;;;4.32;1.50;;;20.30;54.10;;;;;;4931046;29;20039;-75
2023/05/01 16:54:10;;;;;;;6.45;1.30;;;20.20;53.70;;;;;;4922277;29;20031;-76
2023/05/01 16:56:37;;;;;;;6.25;1.40;;;20.10;53.50;;;;;;4950465;29;20054;-76
2023/05/01 16:59:03;;;;;;;3.38;1.08;;;20.00;53.40;;;;;;4944635;29;20059;-77
2023/05/01 17:01:28;;;;;;;7.47;1.30;;;19.90;53.40;;;;;;4928569;29;20063;-75
2023/05/01 17:03:54;;;;;;;5.55;1.55;;;19.80;54.00;;;;;;4950819;29;20565;-76
2023/05/01 17:06:20;;;;;;;2.80;1.90;;;19.80;54.20;;;;;;4950534;29;20024;-75
2023/05/01 17:08:45;;;;;;;2.95;1.17;;;19.80;53.40;;;;;;4928409;29;20105;-77
2023/05/01 17:11:13;;;;;;;3.72;1.30;;;19.80;53.80;;;;;;4949741;29;20046;-74
2023/05/01 17:13:39;;;;;;;2.88;1.25;;;19.80;53.90;;;;;;4929150;29;20046;-76
2023/05/01 17:16:05;;;;;;;3.97;1.27;;;19.90;53.30;;;;;;4948489;29;20031;-76
2023/05/01 17:18:31;;;;;;;5.97;1.48;;;19.80;53.80;;;;;;4947905;29;20070;-78